Time;durP1;ratioP1;P1;durP2;ratioP2;P2;SDS_P1;SDS_P2;PMS_P1;PMS_P2;Temp;Humidity;BMP_temperature;BMP_pressure;BME280_temperature;BME280_humidity;BME280_pressure;Samples;Min_cycle;Max_cycle;Signal;HPM_P1;HPM_P2
2021/03/19 00:02:32;;;;;;;41.42;23.20;;;;;;;3.20;55.95;94590.94;4980043;28;20035;-82
2021/03/19 00:04:58;;;;;;;37.22;21.75;;;;;;;3.22;56.27;94603.59;4974381;28;20494;-82
2021/03/19 00:07:24;;;;;;;38.97;22.75;;;;;;;3.20;56.13;94611.50;5007898;28;20053;-82
2021/03/19 00:09:51;;;;;;;68.45;31.88;;;;;;;3.22;56.57;94614.66;5030940;28;20022;-83
2021/03/19 00:12:17;;;;;;;73.50;35.20;;;;;;;3.18;56.42;94610.09;5013556;28;20129;-83
2021/03/19 00:14:43;;;;;;;58.03;30.13;;;;;;;3.16;56.40;94609.50;5011937;28;20113;-83
2021/03/19 00:17:08;;;;;;;50.13;25.67;;;;;;;3.12;56.54;94598.81;5027592;28;20030;-83
2021/03/19 00:22:02;;;;;;;33.08;20.35;;;;;;;3.14;56.52;94598.63;5066538;22;20054;-82
2021/03/19 00:24:28;;;;;;;26.48;17.92;;;;;;;3.18;56.20;94597.25;5018881;28;20061;-83
2021/03/19 00:26:53;;;;;;;31.58;18.48;;;;;;;3.11;56.42;94607.50;5002548;28;20034;-83
2021/03/19 00:29:19;;;;;;;31.63;19.38;;;;;;;2.98;56.87;94608.22;5010299;28;20042;-83
2021/03/19 00:31:44;;;;;;;39.42;22.52;;;;;;;2.97;57.48;94611.78;5017984;28;20041;-83
2021/03/19 00:34:10;;;;;;;49.20;24.88;;;;;;;2.92;57.79;94608.97;5013435;28;20049;-83
2021/03/19 00:36:36;;;;;;;39.25;21.95;;;;;;;2.88;57.92;94617.25;5011489;28;20057;-82
2021/03/19 00:39:02;;;;;;;41.63;22.15;;;;;;;2.84;57.59;94610.91;5028349;28;20046;-82
2021/03/19 00:41:27;;;;;;;49.05;23.85;;;;;;;2.80;58.15;94610.50;5024968;28;20086;-84
2021/03/19 00:43:53;;;;;;;52.40;23.10;;;;;;;2.79;58.34;94605.56;5023139;28;20026;-83
2021/03/19 00:46:19;;;;;;;50.80;24.33;;;;;;;2.76;58.47;94599.00;5001706;28;20053;-84
2021/03/19 00:48:44;;;;;;;58.88;27.40;;;;;;;2.80;58.62;94599.44;5018309;28;20057;-83
2021/03/19 00:51:11;;;;;;;40.63;20.70;;;;;;;2.78;57.90;94586.78;5018634;28;20084;-84
2021/03/19 00:53:37;;;;;;;30.05;18.15;;;;;;;2.71;58.11;94585.94;5024925;28;20037;-83
2021/03/19 00:56:02;;;;;;;26.50;18.35;;;;;;;2.83;58.35;94599.84;5029077;28;20018;-83
2021/03/19 00:58:28;;;;;;;24.10;17.23;;;;;;;2.89;58.67;94599.09;5029488;28;20022;-84
2021/03/19 01:00:54;;;;;;;26.52;16.58;;;;;;;2.92;58.01;94598.69;5021155;28;20053;-83
2021/03/19 01:03:19;;;;;;;40.45;21.48;;;;;;;2.89;58.86;94599.09;5023505;28;20089;-83
2021/03/19 01:05:45;;;;;;;50.60;24.52;;;;;;;2.92;58.35;94590.19;5027704;28;20030;-80
2021/03/19 01:18:16;;;;;;;47.00;21.88;;;;;;;2.92;58.88;94583.28;4935787;28;20058;-79
2021/03/19 01:20:43;;;;;;;43.88;23.30;;;;;;;2.86;59.63;94588.41;4933729;29;20055;-80
2021/03/19 01:23:09;;;;;;;36.00;20.83;;;;;;;2.89;59.54;94575.19;5308975;23;20072;-83
2021/03/19 01:25:35;;;;;;;39.53;21.52;;;;;;;3.03;59.18;94583.75;5029602;28;20030;-83
2021/03/19 01:28:00;;;;;;;53.42;23.45;;;;;;;3.00;58.95;94575.44;5015183;28;20034;-84
2021/03/19 01:30:27;;;;;;;39.20;20.63;;;;;;;3.14;58.09;94588.34;4978846;28;20099;-83
2021/03/19 01:32:52;;;;;;;32.53;18.15;;;;;;;3.07;58.06;94584.94;4991371;28;20030;-83
2021/03/19 01:35:20;;;;;;;35.90;22.05;;;;;;;2.99;58.08;94571.28;5052936;23;20083;-82
2021/03/19 01:37:46;;;;;;;45.85;23.88;;;;;;;3.11;58.31;94586.16;5041206;28;20064;-82
2021/03/19 01:40:13;;;;;;;36.90;21.15;;;;;;;3.14;58.32;94576.28;5044001;28;20029;-83
2021/03/19 01:42:46;;;;;;;33.28;21.73;;;;;;;3.12;57.99;94582.63;5020753;28;20041;-82
2021/03/19 01:45:34;;;;;;;35.13;21.95;;;;;;;3.01;58.05;94583.94;5010614;28;20044;-82
2021/03/19 01:48:37;;;;;;;28.25;19.02;;;;;;;3.04;58.30;94580.19;5040020;28;20033;-82
2021/03/19 01:51:40;;;;;;;27.85;17.75;;;;;;;3.00;58.66;94585.72;5033315;23;20053;-82
2021/03/19 01:54:24;;;;;;;;;;;;;;;3.03;58.22;94578.59;5031692;28;20040;-82
2021/03/19 01:57:27;;;;;;;28.50;17.58;;;;;;;3.05;58.76;94574.06;5048509;28;19921;-81
2021/03/19 02:00:31;;;;;;;37.60;21.35;;;;;;;3.10;58.51;94574.31;5030785;28;20068;-82
2021/03/19 02:03:16;;;;;;;;;;;;;;;3.09;58.24;94570.13;5104758;23;20134;-81
2021/03/19 02:06:19;;;;;;;36.78;22.92;;;;;;;3.07;58.06;94574.66;5014894;28;19917;-85
2021/03/19 02:09:22;;;;;;;33.30;20.33;;;;;;;3.14;58.33;94575.50;5010414;28;20560;-83
2021/03/19 02:12:26;;;;;;;38.05;20.50;;;;;;;3.16;57.31;94568.41;5003067;28;20511;-82
2021/03/19 02:15:29;;;;;;;38.17;20.90;;;;;;;3.12;58.37;94569.78;4998679;28;20026;-81
2021/03/19 02:18:32;;;;;;;24.33;16.67;;;;;;;3.13;57.76;94566.22;5002715;28;20066;-82
2021/03/19 02:21:34;;;;;;;20.63;14.90;;;;;;;3.15;57.56;94566.81;4992501;28;20034;-82
2021/03/19 02:24:37;;;;;;;17.85;13.40;;;;;;;3.09;57.75;94567.56;4994280;28;20038;-82
2021/03/19 02:27:40;;;;;;;17.20;13.68;;;;;;;3.03;57.66;94563.19;5022673;23;20034;-83
2021/03/19 02:30:43;;;;;;;17.73;13.57;;;;;;;3.14;57.02;94562.66;5008054;28;20038;-82
2021/03/19 02:33:08;;;;;;;27.10;15.75;;;;;;;3.13;57.09;94563.66;5007834;28;20038;-82
2021/03/19 02:35:34;;;;;;;25.10;15.63;;;;;;;3.13;57.34;94568.78;4992240;28;20045;-80
2021/03/19 02:38:00;;;;;;;21.60;15.40;;;;;;;3.01;57.34;94566.75;4992937;28;20061;-81
2021/03/19 02:40:25;;;;;;;27.35;17.58;;;;;;;3.09;57.06;94567.56;4976184;28;20043;-80
2021/03/19 02:42:51;;;;;;;22.80;15.07;;;;;;;3.03;57.18;94563.19;4972742;28;20061;-82
2021/03/19 02:45:19;;;;;;;25.52;16.48;;;;;;;2.98;57.53;94567.13;4992898;28;20058;-83
2021/03/19 02:50:19;;;;;;;30.08;18.05;;;;;;;3.08;56.64;94566.75;5494398;22;20053;-84
2021/03/19 02:52:45;;;;;;;36.08;21.95;;;;;;;3.07;56.81;94557.47;5065140;22;20105;-83
2021/03/19 02:55:14;;;;;;;24.67;17.63;;;;;;;3.15;56.88;94561.66;5005506;28;20052;-84
2021/03/19 02:57:39;;;;;;;30.33;19.30;;;;;;;3.14;56.18;94555.75;5004731;28;20034;-83
2021/03/19 03:00:06;;;;;;;20.52;13.70;;;;;;;3.12;56.32;94562.06;5006116;28;20084;-82
2021/03/19 03:02:32;;;;;;;23.85;16.38;;;;;;;3.08;56.59;94560.84;4985752;28;20037;-82
2021/03/19 03:04:58;;;;;;;24.90;17.38;;;;;;;3.08;56.18;94566.75;5007938;28;20026;-83
2021/03/19 03:07:24;;;;;;;28.15;20.15;;;;;;;3.12;56.18;94562.06;5029662;23;20076;-81
2021/03/19 03:09:50;;;;;;;41.78;25.30;;;;;;;3.00;56.64;94565.16;5032466;28;20037;-82
2021/03/19 03:12:15;;;;;;;47.13;30.00;;;;;;;3.03;56.13;94558.06;5031820;28;20038;-82
2021/03/19 03:14:41;;;;;;;42.88;24.63;;;;;;;3.06;56.97;94563.59;5031166;28;20049;-82
2021/03/19 03:17:06;;;;;;;30.65;21.50;;;;;;;3.09;56.95;94559.84;5030589;28;20041;-82
2021/03/19 03:19:32;;;;;;;21.25;15.50;;;;;;;3.17;56.42;94560.50;5031537;28;20034;-83
2021/03/19 03:24:26;;;;;;;15.52;11.77;;;;;;;3.15;56.02;94556.53;5041620;28;20045;-83
2021/03/19 03:26:52;;;;;;;19.35;15.45;;;;;;;3.17;55.46;94563.06;5006990;28;20041;-84
2021/03/19 03:29:18;;;;;;;24.48;15.60;;;;;;;3.19;55.08;94557.72;5011926;28;20416;-82
2021/03/19 03:31:44;;;;;;;30.60;19.10;;;;;;;3.18;55.49;94556.16;5030406;28;20060;-83
2021/03/19 03:34:09;;;;;;;25.95;15.95;;;;;;;3.12;55.82;94556.91;5294924;23;20053;-82
2021/03/19 03:36:37;;;;;;;39.10;24.20;;;;;;;3.16;56.23;94560.69;5051384;28;20038;-81
2021/03/19 03:39:04;;;;;;;37.60;27.33;;;;;;;3.18;55.41;94556.16;5012889;28;20029;-83
2021/03/19 03:41:35;;;;;;;39.30;28.95;;;;;;;3.08;56.13;94555.69;5012186;28;20094;-83
2021/03/19 03:46:28;;;;;;;39.33;29.02;;;;;;;3.14;55.93;94557.53;5101416;22;20053;-84
2021/03/19 03:48:54;;;;;;;29.83;20.75;;;;;;;3.16;55.76;94558.13;5014870;28;20030;-84
2021/03/19 03:51:20;;;;;;;26.05;17.90;;;;;;;3.14;56.25;94552.38;5020259;23;20409;-84
2021/03/19 03:53:46;;;;;;;23.58;15.15;;;;;;;3.18;56.20;94551.00;5056088;23;20042;-82
2021/03/19 03:56:14;;;;;;;21.88;16.10;;;;;;;3.18;55.95;94562.06;5056072;28;20038;-83
2021/03/19 03:58:40;;;;;;;21.73;15.70;;;;;;;3.17;56.05;94559.69;5009915;28;20033;-84
2021/03/19 04:01:06;;;;;;;21.27;15.07;;;;;;;3.13;55.77;94558.50;5023937;23;20038;-84
2021/03/19 04:03:31;;;;;;;30.08;17.30;;;;;;;3.12;55.82;94562.84;4994385;28;20074;-83
2021/03/19 04:05:57;;;;;;;25.88;15.80;;;;;;;3.14;55.87;94565.22;4985904;28;20034;-83
2021/03/19 04:08:24;;;;;;;31.77;17.98;;;;;;;3.17;55.58;94564.84;4978060;28;20038;-84
2021/03/19 04:10:51;;;;;;;30.55;19.35;;;;;;;3.14;56.16;94575.50;5054051;23;20128;-83
2021/03/19 04:13:16;;;;;;;24.85;16.08;;;;;;;3.13;55.96;94568.78;5011353;28;20045;-83
2021/03/19 04:15:42;;;;;;;18.58;13.68;;;;;;;3.18;56.54;94571.56;4980082;28;20033;-82
2021/03/19 04:18:14;;;;;;;17.05;12.65;;;;;;;3.19;55.77;94573.94;4980963;28;20029;-83
2021/03/19 04:20:43;;;;;;;17.88;12.98;;;;;;;3.19;55.67;94579.06;4989887;28;20034;-82
2021/03/19 04:23:09;;;;;;;36.47;20.92;;;;;;;3.13;55.96;94585.00;4967021;28;20060;-83
2021/03/19 04:25:34;;;;;;;35.70;20.05;;;;;;;3.10;56.39;94574.31;4980211;28;20399;-84
2021/03/19 04:28:06;;;;;;;26.52;17.38;;;;;;;3.13;56.21;94579.06;5015091;28;20033;-84
2021/03/19 04:30:40;;;;;;;31.40;21.00;;;;;;;3.01;56.93;94578.81;4994074;28;20038;-83
2021/03/19 04:33:07;;;;;;;20.17;14.52;;;;;;;3.03;56.62;94579.41;4996703;28;20505;-82
2021/03/19 04:35:33;;;;;;;16.52;13.35;;;;;;;3.03;56.65;94573.47;4981254;28;20033;-82
2021/03/19 04:38:00;;;;;;;18.85;13.70;;;;;;;3.05;56.59;94586.91;4996860;28;20106;-83
2021/03/19 04:40:26;;;;;;;24.50;16.50;;;;;;;2.91;57.07;94586.84;4990516;28;20497;-83
2021/03/19 04:42:53;;;;;;;22.23;16.20;;;;;;;3.00;56.60;94582.34;4993818;28;20513;-83
2021/03/19 04:45:18;;;;;;;31.33;22.13;;;;;;;3.03;56.65;94586.31;4974552;28;20026;-85
2021/03/19 04:47:44;;;;;;;35.08;21.50;;;;;;;2.95;57.37;94587.28;5002846;28;20483;-80
2021/03/19 04:50:10;;;;;;;25.80;16.70;;;;;;;2.96;56.77;94584.50;5014466;28;20436;-79
2021/03/19 04:52:36;;;;;;;35.03;20.13;;;;;;;3.01;56.67;94582.16;4966828;28;20041;-79
2021/03/19 04:55:03;;;;;;;25.67;18.10;;;;;;;3.14;56.12;94590.91;5015218;28;20029;-78
2021/03/19 04:57:29;;;;;;;51.33;28.80;;;;;;;3.22;55.81;94585.59;4994459;28;20033;-81
2021/03/19 04:59:54;;;;;;;48.20;29.25;;;;;;;3.16;56.01;94586.38;4978840;28;20459;-82
2021/03/19 05:02:39;;;;;;;49.40;30.90;;;;;;;3.18;56.63;94586.97;4979184;28;20621;-82
2021/03/19 05:05:07;;;;;;;54.25;30.08;;;;;;;3.27;55.82;94588.41;4965646;28;20057;-83
2021/03/19 05:07:32;;;;;;;39.05;26.98;;;;;;;3.22;56.04;94581.25;4984045;28;20052;-83
2021/03/19 05:10:03;;;;;;;40.20;27.98;;;;;;;3.18;56.06;94586.97;5016387;28;20042;-82
2021/03/19 05:12:28;;;;;;;43.80;24.65;;;;;;;3.30;55.54;94595.72;5050316;23;20429;-78
2021/03/19 05:14:54;;;;;;;31.63;20.80;;;;;;;3.41;54.40;94591.78;4992385;28;20038;-81
2021/03/19 05:17:19;;;;;;;27.25;19.08;;;;;;;3.36;54.66;94596.72;4958787;28;20049;-81
2021/03/19 05:19:45;;;;;;;35.08;24.63;;;;;;;3.29;54.82;94589.00;4959110;28;20030;-81
2021/03/19 05:22:10;;;;;;;47.38;30.58;;;;;;;3.29;55.13;94589.00;4991994;28;20061;-82
2021/03/19 05:24:36;;;;;;;47.35;31.00;;;;;;;3.35;55.00;94593.38;4983689;28;20612;-80
2021/03/19 05:27:01;;;;;;;48.85;29.00;;;;;;;3.32;55.39;94593.75;5001662;28;20065;-81
2021/03/19 05:29:27;;;;;;;54.20;33.00;;;;;;;3.36;54.83;94597.53;5000097;28;20042;-81
2021/03/19 05:31:52;;;;;;;78.00;43.30;;;;;;;3.48;54.45;94606.28;4992561;28;20053;-81
2021/03/19 05:34:18;;;;;;;77.82;45.20;;;;;;;3.37;54.40;94606.03;4993201;28;20045;-80
2021/03/19 05:36:43;;;;;;;85.93;53.17;;;;;;;3.46;53.80;94607.44;4992612;28;20026;-80
2021/03/19 05:39:09;;;;;;;121.03;70.22;;;;;;;3.44;53.51;94607.66;4991376;28;20034;-80
2021/03/19 05:44:27;;;;;;;165.65;84.13;;;;;;;3.63;52.93;94613.84;5041578;23;20054;-80
2021/03/19 05:47:02;;;;;;;162.48;93.07;;;;;;;3.64;53.21;94607.69;5015285;28;20034;-78
2021/03/19 05:51:57;;;;;;;104.78;56.88;;;;;;;3.97;52.35;94612.13;5046157;22;20054;-81
2021/03/19 05:54:31;;;;;;;104.38;53.83;;;;;;;4.17;51.93;94618.09;5021591;28;20477;-82
2021/03/19 05:57:08;;;;;;;108.15;54.58;;;;;;;4.36;51.63;94617.28;5020666;28;20029;-81
2021/03/19 05:59:39;;;;;;;116.75;63.53;;;;;;;4.66;50.51;94609.97;5023446;28;20033;-82
2021/03/19 06:04:40;;;;;;;60.22;34.22;;;;;;;5.31;48.93;94610.81;5202526;23;20045;-82
2021/03/19 06:07:35;;;;;;;34.63;17.83;;;;;;;5.73;46.81;94621.56;5017224;28;20060;-82
2021/03/19 06:10:16;;;;;;;24.30;16.00;;;;;;;5.70;46.41;94627.13;4995320;28;20042;-83
2021/03/19 06:12:42;;;;;;;25.63;17.02;;;;;;;5.70;46.95;94630.50;4970336;28;20521;-81
2021/03/19 06:15:21;;;;;;;32.38;20.05;;;;;;;5.84;47.20;94631.19;4975490;28;20034;-79
2021/03/19 06:17:47;;;;;;;41.88;25.27;;;;;;;6.05;48.01;94624.19;4993491;28;20030;-82
2021/03/19 06:20:14;;;;;;;39.47;25.75;;;;;;;6.26;46.54;94623.84;4960720;28;20046;-82
2021/03/19 06:22:46;;;;;;;45.40;26.13;;;;;;;6.54;46.29;94629.41;4978042;28;20053;-84
2021/03/19 06:25:19;;;;;;;45.37;27.47;;;;;;;6.85;45.64;94622.59;4981779;28;20521;-85
2021/03/19 06:28:12;;;;;;;48.33;29.85;;;;;;;7.11;45.55;94632.66;4994748;28;20046;-80
2021/03/19 06:30:41;;;;;;;41.10;25.52;;;;;;;7.06;44.08;94623.97;5004126;28;20034;-83
2021/03/19 06:33:13;;;;;;;38.00;23.80;;;;;;;7.04;43.17;94637.13;5013225;28;20034;-85
2021/03/19 06:35:47;;;;;;;37.78;23.13;;;;;;;7.05;43.18;94636.13;5007586;28;20080;-83
2021/03/19 06:38:36;;;;;;;40.75;23.95;;;;;;;7.15;44.68;94643.34;4989143;28;20090;-83
2021/03/19 06:41:15;;;;;;;43.75;23.60;;;;;;;7.40;43.70;94638.94;5009288;28;20073;-83
2021/03/19 06:43:41;;;;;;;41.85;24.20;;;;;;;7.51;43.44;94642.59;4992893;28;20499;-83
2021/03/19 06:46:20;;;;;;;40.90;21.95;;;;;;;7.74;42.42;94642.72;4992368;28;20034;-81
2021/03/19 06:49:07;;;;;;;39.15;22.55;;;;;;;8.08;41.71;94627.53;4992495;28;20050;-82
2021/03/19 06:51:38;;;;;;;49.42;26.05;;;;;;;8.30;42.41;94641.59;5007510;28;20525;-82
2021/03/19 06:54:07;;;;;;;46.75;25.88;;;;;;;8.46;41.78;94637.59;4992966;28;20031;-85
2021/03/19 06:56:34;;;;;;;39.63;23.95;;;;;;;8.74;41.36;94642.13;4976913;28;20030;-82
2021/03/19 06:59:00;;;;;;;20.38;15.43;;;;;;;8.95;38.58;94633.81;4996297;28;20036;-83
2021/03/19 07:01:34;;;;;;;23.05;16.65;;;;;;;9.12;38.97;94633.94;4963334;28;20065;-82
2021/03/19 07:04:08;;;;;;;17.92;14.32;;;;;;;9.31;38.00;94642.38;4977108;28;20058;-83
2021/03/19 07:06:53;;;;;;;18.80;13.32;;;;;;;9.49;37.42;94639.63;4992474;28;20042;-82
2021/03/19 07:09:45;;;;;;;28.88;17.63;;;;;;;9.56;36.57;94640.28;4993350;28;20030;-83
2021/03/19 07:12:23;;;;;;;20.35;13.45;;;;;;;9.59;36.85;94637.22;4994224;28;20034;-83
2021/03/19 07:15:03;;;;;;;16.48;12.73;;;;;;;9.82;36.37;94640.78;4993944;28;20057;-83
2021/03/19 07:17:41;;;;;;;25.02;18.13;;;;;;;9.89;37.01;94644.03;4994080;28;20062;-84
2021/03/19 07:20:37;;;;;;;21.73;15.52;;;;;;;9.95;36.34;94653.50;4993704;28;20518;-83
2021/03/19 07:23:25;;;;;;;16.70;11.68;;;;;;;9.83;35.86;94644.97;4995864;28;20057;-82
2021/03/19 07:25:55;;;;;;;25.38;14.95;;;;;;;9.67;36.74;94645.69;4994236;28;20065;-83
2021/03/19 07:28:26;;;;;;;26.02;17.58;;;;;;;9.76;37.60;94639.91;4993793;28;20160;-83
2021/03/19 07:31:10;;;;;;;23.20;13.45;;;;;;;9.80;36.75;94651.41;4979572;28;20490;-82
2021/03/19 07:36:30;;;;;;;15.35;12.35;;;;;;;9.62;35.86;94644.56;5132718;22;20050;-81
2021/03/19 07:39:12;;;;;;;12.85;11.02;;;;;;;9.33;36.47;94637.72;5041466;28;20029;-83
2021/03/19 07:41:56;;;;;;;26.10;14.02;;;;;;;9.34;38.00;94641.91;5009998;28;20072;-84
2021/03/19 07:44:46;;;;;;;24.67;16.70;;;;;;;9.58;36.91;94642.63;5027233;28;20028;-84
2021/03/19 07:47:21;;;;;;;23.23;16.30;;;;;;;9.38;36.34;94647.41;5025997;28;20054;-83
2021/03/19 07:50:03;;;;;;;17.70;12.45;;;;;;;9.32;36.67;94642.13;5006968;28;20044;-84
2021/03/19 07:52:40;;;;;;;14.43;12.45;;;;;;;9.19;37.38;94644.16;4999003;28;20490;-84
2021/03/19 07:55:23;;;;;;;19.85;13.10;;;;;;;9.19;38.01;94641.59;5219027;22;20084;-83
2021/03/19 07:58:11;;;;;;;17.60;12.40;;;;;;;9.01;37.59;94643.28;5006405;28;20027;-82
2021/03/19 08:00:42;;;;;;;17.23;13.68;;;;;;;8.97;37.65;94638.78;5019860;28;20120;-82
2021/03/19 08:03:14;;;;;;;24.75;16.95;;;;;;;8.93;37.93;94640.22;5040030;28;20040;-82
2021/03/19 08:05:51;;;;;;;23.92;15.15;;;;;;;8.87;38.48;94636.72;5042832;28;20031;-83
2021/03/19 08:08:54;;;;;;;24.58;13.82;;;;;;;8.64;38.20;94642.69;4992755;28;20029;-83
2021/03/19 08:12:12;;;;;;;27.70;15.75;;;;;;;8.69;38.69;94642.03;5045429;28;20476;-79
2021/03/19 08:15:15;;;;;;;18.85;15.02;;;;;;;8.84;39.44;94642.38;5011615;28;20065;-82
2021/03/19 08:17:44;;;;;;;20.27;13.85;;;;;;;9.30;38.90;94631.19;5010654;28;20100;-84
2021/03/19 08:20:39;;;;;;;12.70;10.38;;;;;;;9.15;37.34;94635.28;5019924;28;20056;-82
2021/03/19 08:23:30;;;;;;;14.25;11.80;;;;;;;8.68;37.08;94632.66;5032527;28;20635;-82
2021/03/19 08:25:57;;;;;;;12.63;10.40;;;;;;;8.11;38.70;94642.63;5026787;28;20117;-83
2021/03/19 08:28:38;;;;;;;14.85;11.95;;;;;;;7.73;39.79;94641.13;5027772;28;20033;-83
2021/03/19 08:31:22;;;;;;;17.63;13.77;;;;;;;7.88;39.37;94638.16;5043481;28;20061;-83
2021/03/19 08:33:53;;;;;;;19.27;14.25;;;;;;;7.99;39.90;94634.06;5043648;28;20017;-83
2021/03/19 08:36:33;;;;;;;21.42;13.32;;;;;;;8.13;38.37;94633.66;5042003;28;20037;-84
2021/03/19 08:39:10;;;;;;;20.75;12.23;;;;;;;8.02;38.89;94618.06;5024416;28;20040;-84
2021/03/19 08:41:52;;;;;;;21.70;15.02;;;;;;;8.06;40.09;94626.97;5024351;28;20048;-83
2021/03/19 08:44:19;;;;;;;16.80;13.55;;;;;;;8.01;39.57;94617.28;5023407;28;20037;-84
2021/03/19 08:47:02;;;;;;;20.15;14.38;;;;;;;7.94;39.64;94615.78;5021024;28;20067;-83
2021/03/19 08:49:45;;;;;;;21.35;13.10;;;;;;;8.20;40.29;94609.44;5040692;28;20040;-84
2021/03/19 08:52:28;;;;;;;17.48;13.10;;;;;;;8.31;38.88;94619.06;4990233;28;20033;-83
2021/03/19 08:55:16;;;;;;;16.02;11.05;;;;;;;8.30;39.17;94620.06;5022099;28;20117;-83
2021/03/19 08:57:45;;;;;;;17.85;11.73;;;;;;;8.03;39.83;94625.63;5024000;28;20493;-82
2021/03/19 09:00:14;;;;;;;25.98;16.13;;;;;;;7.74;40.47;94622.00;5022351;28;20040;-84
2021/03/19 09:03:07;;;;;;;20.90;14.85;;;;;;;7.69;39.42;94624.47;4989742;28;20044;-83
2021/03/19 09:05:37;;;;;;;14.30;12.73;;;;;;;7.86;40.48;94627.25;5020875;28;20068;-83
2021/03/19 09:08:18;;;;;;;15.07;11.90;;;;;;;7.86;40.06;94621.28;5023109;28;20034;-84
2021/03/19 09:10:43;;;;;;;18.42;13.43;;;;;;;8.16;39.23;94618.69;5026280;28;20034;-83
2021/03/19 09:13:15;;;;;;;25.95;16.55;;;;;;;8.53;39.75;94614.94;5025940;28;20030;-83
2021/03/19 09:15:43;;;;;;;30.25;16.80;;;;;;;8.68;39.08;94607.53;5019781;28;20038;-84
2021/03/19 09:18:11;;;;;;;34.45;14.45;;;;;;;8.83;37.86;94604.50;5013594;28;20041;-84
2021/03/19 09:20:36;;;;;;;15.38;11.98;;;;;;;8.89;37.73;94603.59;5021988;28;20029;-83
2021/03/19 09:23:13;;;;;;;16.30;11.57;;;;;;;8.69;38.25;94603.94;5022054;28;20087;-82
2021/03/19 09:25:49;;;;;;;14.65;12.27;;;;;;;8.55;39.05;94609.53;5024138;28;20067;-82
2021/03/19 09:28:33;;;;;;;14.48;12.18;;;;;;;8.46;39.76;94613.47;5023422;28;20030;-83
2021/03/19 09:31:02;;;;;;;15.65;11.20;;;;;;;8.25;39.52;94606.97;5042997;28;20645;-82
2021/03/19 09:33:43;;;;;;;32.60;13.90;;;;;;;8.11;39.98;94601.97;5045539;28;20025;-83
2021/03/19 09:36:45;;;;;;;20.95;14.63;;;;;;;8.25;39.62;94612.16;5029668;28;20054;-83
2021/03/19 09:39:49;;;;;;;20.88;11.93;;;;;;;8.00;39.68;94604.56;5021389;28;20045;-84
2021/03/19 09:42:17;;;;;;;;;;;;;;;7.64;40.19;94605.41;5029431;28;20184;-82
2021/03/19 09:44:43;;;;;;;16.27;12.38;;;;;;;7.57;40.62;94609.88;5031021;28;19920;-84
2021/03/19 09:49:44;;;;;;;14.30;11.13;;;;;;;7.59;40.14;94605.28;5738787;23;20046;-84
2021/03/19 09:52:17;;;;;;;28.83;14.65;;;;;;;7.73;40.64;94607.50;5016138;28;20038;-84
2021/03/19 09:54:43;;;;;;;16.70;12.57;;;;;;;7.83;41.40;94605.19;4976687;28;20049;-82
2021/03/19 09:57:22;;;;;;;15.85;12.20;;;;;;;7.83;40.84;94601.81;4962390;28;20045;-83
2021/03/19 09:59:57;;;;;;;13.45;11.38;;;;;;;7.80;40.49;94604.81;4996618;28;20034;-84
2021/03/19 10:02:31;;;;;;;18.25;11.27;;;;;;;7.71;40.78;94600.94;4968803;28;20434;-83
2021/03/19 10:05:13;;;;;;;13.27;10.20;;;;;;;7.70;40.64;94599.38;4974757;28;20030;-83
2021/03/19 10:07:52;;;;;;;14.10;11.07;;;;;;;7.73;40.26;94606.69;4991579;28;20026;-82
2021/03/19 10:10:28;;;;;;;11.75;9.90;;;;;;;7.26;40.73;94595.31;4983365;28;20038;-84
2021/03/19 10:13:19;;;;;;;20.75;11.07;;;;;;;7.17;41.28;94605.97;4982516;28;20038;-82
2021/03/19 10:15:47;;;;;;;12.27;10.48;;;;;;;7.14;40.95;94590.84;4968756;28;20161;-84
2021/03/19 10:18:32;;;;;;;14.13;10.50;;;;;;;6.98;42.33;94596.59;4996748;28;20026;-84
2021/03/19 10:21:07;;;;;;;12.18;10.20;;;;;;;7.04;42.31;94603.50;4980283;28;20045;-85
2021/03/19 10:23:37;;;;;;;12.57;10.90;;;;;;;7.22;41.43;94603.50;5008159;23;20174;-85
2021/03/19 10:26:28;;;;;;;13.93;11.80;;;;;;;7.44;41.94;94605.66;5025185;28;20037;-85
2021/03/19 10:29:11;;;;;;;16.00;9.25;;;;;;;7.34;39.82;94606.19;4994447;28;20073;-84
2021/03/19 10:31:47;;;;;;;16.95;9.02;;;;;;;7.15;40.29;94605.38;5013867;28;20116;-84
2021/03/19 10:34:27;;;;;;;17.42;10.63;;;;;;;7.19;41.11;94609.13;4992901;28;20034;-83
2021/03/19 10:36:53;;;;;;;13.00;10.70;;;;;;;7.45;41.17;94602.06;5005695;28;20026;-84
2021/03/19 10:39:49;;;;;;;11.82;9.98;;;;;;;7.44;41.06;94605.66;5026014;28;20097;-84
2021/03/19 10:42:36;;;;;;;16.33;11.10;;;;;;;7.66;43.12;94596.44;5006449;28;20050;-83
2021/03/19 10:45:33;;;;;;;10.90;9.38;;;;;;;7.63;39.73;94581.31;5026108;28;20030;-85
2021/03/19 10:48:17;;;;;;;9.57;8.57;;;;;;;7.34;40.10;94597.63;5023471;28;20047;-84
2021/03/19 10:51:13;;;;;;;9.38;8.40;;;;;;;7.22;39.77;94593.16;5007930;28;20030;-84
2021/03/19 10:53:45;;;;;;;11.23;8.98;;;;;;;7.27;39.69;94594.31;4984167;28;20044;-83
2021/03/19 10:56:11;;;;;;;12.07;9.27;;;;;;;7.19;40.72;94593.59;5008295;28;20057;-83
2021/03/19 10:58:41;;;;;;;11.98;9.30;;;;;;;7.16;39.61;94591.47;4971920;28;20892;-84
2021/03/19 11:06:37;;;;;;;13.63;9.63;;;;;;;7.35;40.59;94581.09;5017087;28;20094;-84
2021/03/19 11:09:06;;;;;;;12.23;10.05;;;;;;;7.52;39.38;94577.69;5008945;28;20046;-81
2021/03/19 11:11:32;;;;;;;13.80;9.38;;;;;;;7.72;38.91;94587.78;5012825;28;20044;-82
2021/03/19 11:14:05;;;;;;;8.50;7.70;;;;;;;7.87;37.03;94578.84;5008274;28;20038;-82
2021/03/19 11:16:34;;;;;;;11.40;8.60;;;;;;;7.99;37.99;94577.09;4992927;28;20097;-83
2021/03/19 11:19:13;;;;;;;12.15;8.02;;;;;;;8.12;36.84;94582.06;5010412;28;20579;-83
2021/03/19 11:21:39;;;;;;;9.55;7.20;;;;;;;8.10;35.86;94571.91;5024021;28;20107;-83
2021/03/19 11:24:06;;;;;;;9.43;7.25;;;;;;;7.97;35.62;94563.53;4993988;28;20215;-83
2021/03/19 11:26:35;;;;;;;10.48;7.68;;;;;;;7.83;35.95;94562.97;5025398;28;20523;-81
2021/03/19 11:29:13;;;;;;;9.67;7.83;;;;;;;7.49;35.78;94575.56;4991930;28;20054;-83
2021/03/19 11:31:58;;;;;;;11.10;8.18;;;;;;;7.41;36.72;94575.84;5008025;28;20038;-83
2021/03/19 11:34:37;;;;;;;9.10;7.63;;;;;;;7.04;37.38;94575.06;5008063;28;20054;-83
2021/03/19 11:37:12;;;;;;;8.35;7.55;;;;;;;7.03;37.93;94577.88;5006430;28;20052;-82
2021/03/19 11:39:52;;;;;;;9.18;8.23;;;;;;;7.28;37.69;94577.78;4992029;28;20037;-83
2021/03/19 11:42:19;;;;;;;14.05;8.85;;;;;;;7.29;38.39;94571.59;5009141;28;20022;-83
2021/03/19 11:44:46;;;;;;;11.45;7.95;;;;;;;7.39;37.87;94562.34;4993245;28;20048;-81
2021/03/19 11:47:41;;;;;;;11.55;7.38;;;;;;;7.68;36.52;94555.59;5007435;28;20026;-81
2021/03/19 11:50:22;;;;;;;10.15;8.40;;;;;;;7.61;37.70;94560.06;5005690;28;20054;-83
2021/03/19 11:52:49;;;;;;;10.45;8.30;;;;;;;7.88;37.56;94576.03;5005372;28;20022;-81
2021/03/19 11:55:28;;;;;;;13.40;8.75;;;;;;;7.79;36.45;94562.59;4995895;28;20062;-81
2021/03/19 11:57:54;;;;;;;8.48;7.57;;;;;;;7.57;36.23;94558.94;4979741;28;20052;-80
2021/03/19 12:00:21;;;;;;;10.93;8.40;;;;;;;7.50;38.32;94559.03;4989411;28;20030;-82
2021/03/19 12:02:51;;;;;;;10.88;8.80;;;;;;;7.50;36.78;94555.66;5007335;28;20031;-82
2021/03/19 12:05:19;;;;;;;8.75;7.85;;;;;;;7.33;36.89;94557.25;5006294;28;20109;-79
2021/03/19 12:07:44;;;;;;;11.80;8.15;;;;;;;7.09;37.90;94564.88;5006923;28;20025;-79
2021/03/19 12:10:11;;;;;;;11.52;9.07;;;;;;;7.18;38.32;94561.00;5007675;28;20045;-80
2021/03/19 12:12:36;;;;;;;16.95;11.68;;;;;;;7.45;39.12;94560.66;5016680;28;20035;-86
2021/03/19 12:15:03;;;;;;;10.38;9.27;;;;;;;7.57;37.79;94551.16;4999755;28;20375;-83
2021/03/19 12:17:28;;;;;;;9.68;8.77;;;;;;;7.64;37.69;94554.44;4985576;28;20038;-81
2021/03/19 12:19:53;;;;;;;10.63;8.88;;;;;;;7.79;37.60;94552.25;4990035;28;20422;-79
2021/03/19 12:22:20;;;;;;;10.15;8.73;;;;;;;7.92;37.49;94555.66;5008289;28;20041;-78
2021/03/19 12:24:45;;;;;;;9.90;8.48;;;;;;;8.01;35.75;94549.97;4989926;28;20486;-79
2021/03/19 12:27:13;;;;;;;15.77;10.80;;;;;;;8.11;36.84;94554.59;5008428;28;20044;-79
2021/03/19 12:29:38;;;;;;;24.17;13.75;;;;;;;8.26;37.26;94557.53;5005245;28;20061;-79
2021/03/19 12:32:04;;;;;;;16.02;10.65;;;;;;;8.33;36.47;94542.69;5004452;28;20418;-79
2021/03/19 12:34:29;;;;;;;36.85;18.98;;;;;;;8.34;36.87;94559.84;5006940;28;20030;-78
2021/03/19 12:36:55;;;;;;;16.55;11.85;;;;;;;8.44;36.34;94559.28;4988438;28;20069;-80